sensor_id;sensor_type;location;lat;lon;timestamp;pressure;altitude;pressure_sealevel;temperature;humidity
86328;BME280;76984;52.332;10.562;2024-03-06T00:01:09;101142.13;;;3.64;69.06
86328;BME280;76984;52.332;10.562;2024-03-06T00:03:34;101136.00;;;3.57;69.47
86328;BME280;76984;52.332;10.562;2024-03-06T00:06:00;101145.44;;;3.66;69.66
86328;BME280;76984;52.332;10.562;2024-03-06T00:08:25;101154.75;;;3.65;69.29
86328;BME280;76984;52.332;10.562;2024-03-06T00:10:51;101155.34;;;3.67;69.37
86328;BME280;76984;52.332;10.562;2024-03-06T00:13:16;101148.53;;;3.69;70.05
86328;BME280;76984;52.332;10.562;2024-03-06T00:15:41;101151.25;;;3.69;70.52
86328;BME280;76984;52.332;10.562;2024-03-06T00:18:07;101141.84;;;3.60;71.02
86328;BME280;76984;52.332;10.562;2024-03-06T00:20:32;101150.34;;;3.64;71.20
86328;BME280;76984;52.332;10.562;2024-03-06T00:22:57;101138.53;;;3.58;71.11
86328;BME280;76984;52.332;10.562;2024-03-06T00:25:24;101145.09;;;3.57;70.81
86328;BME280;76984;52.332;10.562;2024-03-06T00:27:49;101162.97;;;3.65;70.95
86328;BME280;76984;52.332;10.562;2024-03-06T00:30:15;101165.97;;;3.63;70.39
86328;BME280;76984;52.332;10.562;2024-03-06T00:32:40;101158.91;;;3.67;70.52
86328;BME280;76984;52.332;10.562;2024-03-06T00:35:05;101162.47;;;3.68;70.07
86328;BME280;76984;52.332;10.562;2024-03-06T00:37:31;101140.66;;;3.56;70.03
86328;BME280;76984;52.332;10.562;2024-03-06T00:39:56;101142.84;;;3.54;69.85
86328;BME280;76984;52.332;10.562;2024-03-06T00:42:21;101135.31;;;3.44;69.94
86328;BME280;76984;52.332;10.562;2024-03-06T00:44:47;101153.78;;;3.54;69.79
86328;BME280;76984;52.332;10.562;2024-03-06T00:47:12;101182.91;;;3.60;69.80
86328;BME280;76984;52.332;10.562;2024-03-06T00:49:37;101173.16;;;3.48;70.57
86328;BME280;76984;52.332;10.562;2024-03-06T00:52:04;101164.88;;;3.42;70.12
86328;BME280;76984;52.332;10.562;2024-03-06T00:54:29;101159.56;;;3.36;70.56
86328;BME280;76984;52.332;10.562;2024-03-06T00:56:54;101182.00;;;3.55;70.55
86328;BME280;76984;52.332;10.562;2024-03-06T00:59:20;101186.41;;;3.56;70.25
86328;BME280;76984;52.332;10.562;2024-03-06T01:01:45;101152.44;;;3.35;70.33
86328;BME280;76984;52.332;10.562;2024-03-06T01:04:11;101178.03;;;3.45;70.32
86328;BME280;76984;52.332;10.562;2024-03-06T01:06:36;101171.94;;;3.38;70.63
86328;BME280;76984;52.332;10.562;2024-03-06T01:09:01;101191.25;;;3.49;70.94
86328;BME280;76984;52.332;10.562;2024-03-06T01:11:26;101183.50;;;3.45;70.74
86328;BME280;76984;52.332;10.562;2024-03-06T01:13:52;101183.94;;;3.37;70.92
86328;BME280;76984;52.332;10.562;2024-03-06T01:16:18;101197.81;;;3.48;70.76
86328;BME280;76984;52.332;10.562;2024-03-06T01:18:43;101198.38;;;3.50;70.50
86328;BME280;76984;52.332;10.562;2024-03-06T01:21:08;101159.66;;;3.24;70.39
86328;BME280;76984;52.332;10.562;2024-03-06T01:23:33;101185.84;;;3.37;71.28
86328;BME280;76984;52.332;10.562;2024-03-06T01:25:59;101198.47;;;3.38;70.93
86328;BME280;76984;52.332;10.562;2024-03-06T01:28:24;101195.75;;;3.38;71.57
86328;BME280;76984;52.332;10.562;2024-03-06T01:30:49;101170.88;;;3.23;71.55
86328;BME280;76984;52.332;10.562;2024-03-06T01:33:15;101205.34;;;3.40;71.60
86328;BME280;76984;52.332;10.562;2024-03-06T01:35:40;101193.84;;;3.38;71.08
86328;BME280;76984;52.332;10.562;2024-03-06T01:38:05;101198.97;;;3.35;71.63
86328;BME280;76984;52.332;10.562;2024-03-06T01:40:31;101196.56;;;3.38;72.00
86328;BME280;76984;52.332;10.562;2024-03-06T01:42:56;101188.69;;;3.25;71.94
86328;BME280;76984;52.332;10.562;2024-03-06T01:45:21;101201.97;;;3.33;71.82
86328;BME280;76984;52.332;10.562;2024-03-06T01:47:47;101204.38;;;3.30;71.34
86328;BME280;76984;52.332;10.562;2024-03-06T01:50:13;101192.69;;;3.17;71.64
86328;BME280;76984;52.332;10.562;2024-03-06T01:52:39;101206.78;;;3.26;71.51
86328;BME280;76984;52.332;10.562;2024-03-06T01:55:07;101213.75;;;3.34;71.46
86328;BME280;76984;52.332;10.562;2024-03-06T01:57:33;101193.50;;;3.18;71.41
86328;BME280;76984;52.332;10.562;2024-03-06T01:59:59;101207.38;;;3.28;71.54
86328;BME280;76984;52.332;10.562;2024-03-06T02:02:25;101202.63;;;3.24;72.01
86328;BME280;76984;52.332;10.562;2024-03-06T02:04:53;101188.22;;;3.11;71.63
86328;BME280;76984;52.332;10.562;2024-03-06T02:07:19;101190.69;;;3.13;71.89
86328;BME280;76984;52.332;10.562;2024-03-06T02:09:45;101213.16;;;3.32;71.43
86328;BME280;76984;52.332;10.562;2024-03-06T02:12:11;101194.59;;;3.17;72.27
86328;BME280;76984;52.332;10.562;2024-03-06T02:14:36;101207.38;;;3.28;71.97
86328;BME280;76984;52.332;10.562;2024-03-06T02:17:02;101203.22;;;3.26;72.19
86328;BME280;76984;52.332;10.562;2024-03-06T02:19:43;101198.31;;;3.28;71.83
86328;BME280;76984;52.332;10.562;2024-03-06T02:22:10;101201.03;;;3.28;72.16
86328;BME280;76984;52.332;10.562;2024-03-06T02:24:36;101211.75;;;3.29;72.24
86328;BME280;76984;52.332;10.562;2024-03-06T02:27:02;101197.66;;;3.21;72.30
86328;BME280;76984;52.332;10.562;2024-03-06T02:29:27;101202.88;;;3.22;72.28
86328;BME280;76984;52.332;10.562;2024-03-06T02:31:53;101207.38;;;3.28;72.37
86328;BME280;76984;52.332;10.562;2024-03-06T02:34:18;101194.53;;;3.12;72.09
86328;BME280;76984;52.332;10.562;2024-03-06T02:36:44;101213.69;;;3.29;71.92
86328;BME280;76984;52.332;10.562;2024-03-06T02:39:09;101215.81;;;3.27;72.37
86328;BME280;76984;52.332;10.562;2024-03-06T02:41:35;101197.50;;;3.10;72.07
86328;BME280;76984;52.332;10.562;2024-03-06T02:44:01;101212.00;;;3.28;72.19
86328;BME280;76984;52.332;10.562;2024-03-06T02:46:26;101204.22;;;3.20;72.59
86328;BME280;76984;52.332;10.562;2024-03-06T02:48:52;101211.00;;;3.17;72.24
86328;BME280;76984;52.332;10.562;2024-03-06T02:51:21;101207.94;;;3.13;72.31
86328;BME280;76984;52.332;10.562;2024-03-06T02:53:46;101217.31;;;3.17;72.15
86328;BME280;76984;52.332;10.562;2024-03-06T02:56:17;101221.78;;;3.24;72.18
86328;BME280;76984;52.332;10.562;2024-03-06T02:58:43;101233.88;;;3.28;72.33
86328;BME280;76984;52.332;10.562;2024-03-06T03:01:08;101227.59;;;3.27;72.21
86328;BME280;76984;52.332;10.562;2024-03-06T03:03:34;101239.13;;;3.29;72.50
86328;BME280;76984;52.332;10.562;2024-03-06T03:06:00;101228.41;;;3.28;72.62
86328;BME280;76984;52.332;10.562;2024-03-06T03:08:26;101200.72;;;3.07;72.86
86328;BME280;76984;52.332;10.562;2024-03-06T03:10:51;101228.09;;;3.24;72.31
86328;BME280;76984;52.332;10.562;2024-03-06T03:13:16;101205.38;;;3.07;72.42
86328;BME280;76984;52.332;10.562;2024-03-06T03:15:42;101243.69;;;3.24;72.86
86328;BME280;76984;52.332;10.562;2024-03-06T03:18:08;101237.66;;;3.22;72.91
86328;BME280;76984;52.332;10.562;2024-03-06T03:20:33;101219.88;;;3.07;72.65
86328;BME280;76984;52.332;10.562;2024-03-06T03:22:58;101246.84;;;3.15;72.86
86328;BME280;76984;52.332;10.562;2024-03-06T03:25:24;101259.28;;;3.23;72.78
86328;BME280;76984;52.332;10.562;2024-03-06T03:27:50;101237.47;;;3.11;73.34
86328;BME280;76984;52.332;10.562;2024-03-06T03:30:16;101245.50;;;3.18;73.46
86328;BME280;76984;52.332;10.562;2024-03-06T03:32:41;101258.47;;;3.23;73.33
86328;BME280;76984;52.332;10.562;2024-03-06T03:35:07;101262.03;;;3.23;73.34
86328;BME280;76984;52.332;10.562;2024-03-06T03:37:33;101247.66;;;3.16;73.40
86328;BME280;76984;52.332;10.562;2024-03-06T03:39:59;101226.94;;;3.03;73.46
86328;BME280;76984;52.332;10.562;2024-03-06T03:42:24;101253.06;;;3.11;73.42
86328;BME280;76984;52.332;10.562;2024-03-06T03:44:49;101271.81;;;3.19;73.26
86328;BME280;76984;52.332;10.562;2024-03-06T03:47:15;101267.91;;;3.15;73.60
86328;BME280;76984;52.332;10.562;2024-03-06T03:49:40;101262.19;;;3.16;72.96
86328;BME280;76984;52.332;10.562;2024-03-06T03:52:06;101266.75;;;3.11;73.20
86328;BME280;76984;52.332;10.562;2024-03-06T03:54:31;101266.00;;;3.15;73.17
86328;BME280;76984;52.332;10.562;2024-03-06T03:56:57;101254.38;;;3.08;73.04
86328;BME280;76984;52.332;10.562;2024-03-06T03:59:24;101270.31;;;3.11;73.54
86328;BME280;76984;52.332;10.562;2024-03-06T04:01:50;101258.94;;;3.03;73.01
86328;BME280;76984;52.332;10.562;2024-03-06T04:04:15;101244.84;;;2.94;72.89
86328;BME280;76984;52.332;10.562;2024-03-06T04:06:40;101259.78;;;3.03;72.63
86328;BME280;76984;52.332;10.562;2024-03-06T04:09:06;101246.50;;;2.95;72.82
86328;BME280;76984;52.332;10.562;2024-03-06T04:11:31;101253.31;;;2.93;73.03
86328;BME280;76984;52.332;10.562;2024-03-06T04:13:59;101278.44;;;3.06;72.85
86328;BME280;76984;52.332;10.562;2024-03-06T04:16:24;101278.69;;;3.05;72.95
86328;BME280;76984;52.332;10.562;2024-03-06T04:18:49;101269.56;;;2.99;72.85
86328;BME280;76984;52.332;10.562;2024-03-06T04:21:15;101245.50;;;2.84;73.08
86328;BME280;76984;52.332;10.562;2024-03-06T04:23:40;101265.06;;;2.93;73.63
86328;BME280;76984;52.332;10.562;2024-03-06T04:26:06;101275.44;;;2.91;73.48
86328;BME280;76984;52.332;10.562;2024-03-06T04:28:31;101263.69;;;2.79;73.71
86328;BME280;76984;52.332;10.562;2024-03-06T04:30:57;101273.41;;;2.86;73.49
86328;BME280;76984;52.332;10.562;2024-03-06T04:33:22;101291.59;;;2.93;73.72
86328;BME280;76984;52.332;10.562;2024-03-06T04:35:47;101279.47;;;2.88;74.49
86328;BME280;76984;52.332;10.562;2024-03-06T04:38:13;101269.19;;;2.79;74.30
86328;BME280;76984;52.332;10.562;2024-03-06T04:40:39;101289.25;;;2.84;74.03
86328;BME280;76984;52.332;10.562;2024-03-06T04:43:04;101281.13;;;2.73;74.12
86328;BME280;76984;52.332;10.562;2024-03-06T04:45:29;101283.28;;;2.71;74.00
86328;BME280;76984;52.332;10.562;2024-03-06T04:47:55;101293.38;;;2.70;74.36
86328;BME280;76984;52.332;10.562;2024-03-06T04:50:20;101303.31;;;2.76;74.05
86328;BME280;76984;52.332;10.562;2024-03-06T04:52:46;101289.78;;;2.70;74.51
86328;BME280;76984;52.332;10.562;2024-03-06T04:55:11;101317.69;;;2.83;74.50
86328;BME280;76984;52.332;10.562;2024-03-06T04:57:38;101317.69;;;2.83;74.04
86328;BME280;76984;52.332;10.562;2024-03-06T05:00:04;101293.03;;;2.67;73.92
86328;BME280;76984;52.332;10.562;2024-03-06T05:02:33;101317.56;;;2.78;74.54
86328;BME280;76984;52.332;10.562;2024-03-06T05:05:00;101308.72;;;2.71;74.31
86328;BME280;76984;52.332;10.562;2024-03-06T05:07:27;101304.22;;;2.65;75.15
86328;BME280;76984;52.332;10.562;2024-03-06T05:09:52;101321.31;;;2.72;74.28
86328;BME280;76984;52.332;10.562;2024-03-06T05:12:17;101292.56;;;2.58;74.91
86328;BME280;76984;52.332;10.562;2024-03-06T05:14:42;101318.97;;;2.64;75.14
86328;BME280;76984;52.332;10.562;2024-03-06T05:17:08;101334.03;;;2.67;75.59
86328;BME280;76984;52.332;10.562;2024-03-06T05:19:35;101338.78;;;2.71;75.65
86328;BME280;76984;52.332;10.562;2024-03-06T05:22:01;101340.91;;;2.69;74.92
86328;BME280;76984;52.332;10.562;2024-03-06T05:24:26;101338.69;;;2.66;75.10
86328;BME280;76984;52.332;10.562;2024-03-06T05:26:51;101344.16;;;2.66;75.57
86328;BME280;76984;52.332;10.562;2024-03-06T05:29:16;101326.59;;;2.50;75.47
86328;BME280;76984;52.332;10.562;2024-03-06T05:31:42;101326.38;;;2.52;75.26
86328;BME280;76984;52.332;10.562;2024-03-06T05:34:07;101350.56;;;2.60;75.93
86328;BME280;76984;52.332;10.562;2024-03-06T05:36:33;101348.00;;;2.53;75.23
86328;BME280;76984;52.332;10.562;2024-03-06T05:38:58;101368.88;;;2.59;75.98
86328;BME280;76984;52.332;10.562;2024-03-06T05:41:23;101341.00;;;2.46;76.19
86328;BME280;76984;52.332;10.562;2024-03-06T05:43:49;101361.44;;;2.55;75.83
86328;BME280;76984;52.332;10.562;2024-03-06T05:46:14;101351.47;;;2.37;76.22
86328;BME280;76984;52.332;10.562;2024-03-06T05:48:40;101361.78;;;2.47;75.89
86328;BME280;76984;52.332;10.562;2024-03-06T05:51:06;101346.25;;;2.36;76.18
86328;BME280;76984;52.332;10.562;2024-03-06T05:53:38;101373.69;;;2.52;76.02
86328;BME280;76984;52.332;10.562;2024-03-06T05:56:05;101364.88;;;2.50;76.66
86328;BME280;76984;52.332;10.562;2024-03-06T05:58:31;101363.69;;;2.46;76.41
86328;BME280;76984;52.332;10.562;2024-03-06T06:00:56;101354.47;;;2.36;76.27
86328;BME280;76984;52.332;10.562;2024-03-06T06:03:21;101357.44;;;2.34;76.98
86328;BME280;76984;52.332;10.562;2024-03-06T06:05:46;101375.47;;;2.47;76.45
86328;BME280;76984;52.332;10.562;2024-03-06T06:08:12;101387.34;;;2.41;76.64
86328;BME280;76984;52.332;10.562;2024-03-06T06:10:37;101385.44;;;2.41;76.70
86328;BME280;76984;52.332;10.562;2024-03-06T06:13:02;101392.34;;;2.44;77.03
86328;BME280;76984;52.332;10.562;2024-03-06T06:15:29;101387.25;;;2.36;77.11
86328;BME280;76984;52.332;10.562;2024-03-06T06:17:55;101382.50;;;2.31;77.04
86328;BME280;76984;52.332;10.562;2024-03-06T06:20:20;101402.47;;;2.43;77.39
86328;BME280;76984;52.332;10.562;2024-03-06T06:22:46;101407.69;;;2.45;76.42
86328;BME280;76984;52.332;10.562;2024-03-06T06:25:11;101395.56;;;2.41;76.78
86328;BME280;76984;52.332;10.562;2024-03-06T06:27:37;101385.09;;;2.38;76.57
86328;BME280;76984;52.332;10.562;2024-03-06T06:30:03;101401.63;;;2.43;76.44
86328;BME280;76984;52.332;10.562;2024-03-06T06:32:28;101415.41;;;2.48;77.12
86328;BME280;76984;52.332;10.562;2024-03-06T06:34:54;101411.72;;;2.54;76.65
86328;BME280;76984;52.332;10.562;2024-03-06T06:37:19;101423.00;;;2.57;76.93
86328;BME280;76984;52.332;10.562;2024-03-06T06:39:44;101411.34;;;2.50;76.02
86328;BME280;76984;52.332;10.562;2024-03-06T06:42:10;101405.19;;;2.43;76.83
86328;BME280;76984;52.332;10.562;2024-03-06T06:44:36;101441.75;;;2.66;76.43
86328;BME280;76984;52.332;10.562;2024-03-06T06:47:02;101421.22;;;2.63;76.12
86328;BME280;76984;52.332;10.562;2024-03-06T06:49:27;101424.41;;;2.72;75.58
86328;BME280;76984;52.332;10.562;2024-03-06T06:51:52;101445.19;;;2.84;75.86
86328;BME280;76984;52.332;10.562;2024-03-06T06:54:18;101449.00;;;2.83;75.85
86328;BME280;76984;52.332;10.562;2024-03-06T06:56:43;101435.94;;;2.74;76.07
86328;BME280;76984;52.332;10.562;2024-03-06T06:59:08;101455.63;;;2.87;75.79
86328;BME280;76984;52.332;10.562;2024-03-06T07:01:33;101454.44;;;2.95;76.27
86328;BME280;76984;52.332;10.562;2024-03-06T07:03:59;101455.84;;;2.98;75.69
86328;BME280;76984;52.332;10.562;2024-03-06T07:06:24;101421.63;;;2.83;75.16
86328;BME280;76984;52.332;10.562;2024-03-06T07:08:50;101456.28;;;3.06;75.47
86328;BME280;76984;52.332;10.562;2024-03-06T07:11:18;101449.53;;;3.09;75.67
86328;BME280;76984;52.332;10.562;2024-03-06T07:13:44;101446.16;;;3.07;75.01
86328;BME280;76984;52.332;10.562;2024-03-06T07:16:09;101455.41;;;3.17;75.54
86328;BME280;76984;52.332;10.562;2024-03-06T07:18:35;101454.69;;;3.22;75.38
86328;BME280;76984;52.332;10.562;2024-03-06T07:21:00;101457.94;;;3.19;74.68
86328;BME280;76984;52.332;10.562;2024-03-06T07:23:26;101453.13;;;3.26;74.21
86328;BME280;76984;52.332;10.562;2024-03-06T07:25:51;101469.16;;;3.34;74.75
86328;BME280;76984;52.332;10.562;2024-03-06T07:28:16;101469.28;;;3.39;74.37
86328;BME280;76984;52.332;10.562;2024-03-06T07:30:42;101481.13;;;3.45;74.56
86328;BME280;76984;52.332;10.562;2024-03-06T07:33:07;101481.97;;;3.45;74.28
86328;BME280;76984;52.332;10.562;2024-03-06T07:35:33;101480.66;;;3.48;74.64
86328;BME280;76984;52.332;10.562;2024-03-06T07:38:01;101483.34;;;3.60;73.98
86328;BME280;76984;52.332;10.562;2024-03-06T07:40:28;101487.50;;;3.62;74.46
86328;BME280;76984;52.332;10.562;2024-03-06T07:42:53;101471.06;;;3.62;75.44
86328;BME280;76984;52.332;10.562;2024-03-06T07:45:18;101494.84;;;3.90;75.34
86328;BME280;76984;52.332;10.562;2024-03-06T07:47:45;101470.25;;;3.95;75.41
86328;BME280;76984;52.332;10.562;2024-03-06T07:50:10;101482.91;;;4.13;73.35
86328;BME280;76984;52.332;10.562;2024-03-06T07:52:36;101478.09;;;4.20;72.51
86328;BME280;76984;52.332;10.562;2024-03-06T07:55:01;101485.63;;;4.30;71.77
86328;BME280;76984;52.332;10.562;2024-03-06T07:57:28;101514.78;;;4.53;71.34
86328;BME280;76984;52.332;10.562;2024-03-06T07:59:53;101508.88;;;4.61;71.55
86328;BME280;76984;52.332;10.562;2024-03-06T08:02:20;101506.22;;;4.66;71.56
86328;BME280;76984;52.332;10.562;2024-03-06T08:04:45;101506.94;;;4.78;70.36
86328;BME280;76984;52.332;10.562;2024-03-06T08:07:12;101522.88;;;4.81;69.34
86328;BME280;76984;52.332;10.562;2024-03-06T08:09:37;101501.00;;;4.65;69.34
86328;BME280;76984;52.332;10.562;2024-03-06T08:12:03;101524.31;;;4.84;69.67
86328;BME280;76984;52.332;10.562;2024-03-06T08:14:28;101510.09;;;4.70;70.00
86328;BME280;76984;52.332;10.562;2024-03-06T08:16:54;101525.22;;;4.73;70.21
86328;BME280;76984;52.332;10.562;2024-03-06T08:19:19;101529.22;;;4.82;69.88
86328;BME280;76984;52.332;10.562;2024-03-06T08:21:44;101534.47;;;4.83;70.51
86328;BME280;76984;52.332;10.562;2024-03-06T08:24:09;101542.25;;;4.92;70.09
86328;BME280;76984;52.332;10.562;2024-03-06T08:26:36;101492.75;;;4.65;70.48
86328;BME280;76984;52.332;10.562;2024-03-06T08:29:01;101541.81;;;5.00;70.32
86328;BME280;76984;52.332;10.562;2024-03-06T08:31:26;101522.16;;;4.86;69.78
86328;BME280;76984;52.332;10.562;2024-03-06T08:33:52;101548.47;;;5.04;70.08
86328;BME280;76984;52.332;10.562;2024-03-06T08:36:18;101545.78;;;5.09;69.80
86328;BME280;76984;52.332;10.562;2024-03-06T08:38:44;101549.34;;;5.09;69.55
86328;BME280;76984;52.332;10.562;2024-03-06T08:41:09;101561.25;;;5.15;69.97
86328;BME280;76984;52.332;10.562;2024-03-06T08:43:34;101562.75;;;5.23;69.90
86328;BME280;76984;52.332;10.562;2024-03-06T08:46:00;101561.13;;;5.27;69.92
86328;BME280;76984;52.332;10.562;2024-03-06T08:48:25;101540.16;;;5.21;69.47
86328;BME280;76984;52.332;10.562;2024-03-06T08:50:50;101552.72;;;5.33;68.56
86328;BME280;76984;52.332;10.562;2024-03-06T08:53:16;101556.72;;;5.47;68.85
86328;BME280;76984;52.332;10.562;2024-03-06T08:55:41;101556.84;;;5.58;68.42
86328;BME280;76984;52.332;10.562;2024-03-06T08:58:07;101554.63;;;5.55;68.38
86328;BME280;76984;52.332;10.562;2024-03-06T09:00:34;101544.44;;;5.55;68.32
86328;BME280;76984;52.332;10.562;2024-03-06T09:02:59;101540.34;;;5.58;68.16
86328;BME280;76984;52.332;10.562;2024-03-06T09:05:25;101559.25;;;5.76;67.67
86328;BME280;76984;52.332;10.562;2024-03-06T09:07:51;101571.78;;;5.89;67.34
86328;BME280;76984;52.332;10.562;2024-03-06T09:10:16;101573.25;;;5.96;67.71
86328;BME280;76984;52.332;10.562;2024-03-06T09:12:44;101577.19;;;6.06;67.51
86328;BME280;76984;52.332;10.562;2024-03-06T09:15:09;101578.38;;;6.15;67.03
86328;BME280;76984;52.332;10.562;2024-03-06T09:17:36;101556.91;;;6.12;66.01
86328;BME280;76984;52.332;10.562;2024-03-06T09:20:02;101586.00;;;6.35;65.98
86328;BME280;76984;52.332;10.562;2024-03-06T09:22:37;101583.38;;;6.50;63.79
86328;BME280;76984;52.332;10.562;2024-03-06T09:25:03;101585.66;;;6.58;64.29
86328;BME280;76984;52.332;10.562;2024-03-06T09:27:29;101579.06;;;6.59;62.47
86328;BME280;76984;52.332;10.562;2024-03-06T09:29:54;101594.34;;;6.77;61.12
86328;BME280;76984;52.332;10.562;2024-03-06T09:32:21;101597.66;;;6.79;61.63
86328;BME280;76984;52.332;10.562;2024-03-06T09:34:47;101570.66;;;6.76;60.32
86328;BME280;76984;52.332;10.562;2024-03-06T09:37:13;101589.19;;;6.91;60.57
86328;BME280;76984;52.332;10.562;2024-03-06T09:39:39;101590.31;;;6.95;59.52
86328;BME280;76984;52.332;10.562;2024-03-06T09:42:04;101578.47;;;6.89;58.59
86328;BME280;76984;52.332;10.562;2024-03-06T09:44:30;101594.00;;;7.10;58.45
86328;BME280;76984;52.332;10.562;2024-03-06T09:46:59;101597.38;;;7.17;57.81
86328;BME280;76984;52.332;10.562;2024-03-06T09:49:26;101587.72;;;7.20;58.09
86328;BME280;76984;52.332;10.562;2024-03-06T09:51:53;101589.72;;;7.30;56.42
86328;BME280;76984;52.332;10.562;2024-03-06T09:54:20;101604.38;;;7.40;57.32
86328;BME280;76984;52.332;10.562;2024-03-06T09:56:47;101612.13;;;7.43;56.21
86328;BME280;76984;52.332;10.562;2024-03-06T09:59:13;101597.97;;;7.30;55.77
86328;BME280;76984;52.332;10.562;2024-03-06T10:01:47;101611.25;;;7.43;55.87
86328;BME280;76984;52.332;10.562;2024-03-06T10:04:22;101607.94;;;7.41;56.25
86328;BME280;76984;52.332;10.562;2024-03-06T10:06:48;101600.84;;;7.50;56.20
86328;BME280;76984;52.332;10.562;2024-03-06T10:09:18;101617.16;;;7.62;56.66
86328;BME280;76984;52.332;10.562;2024-03-06T10:11:44;101618.88;;;7.73;56.55
86328;BME280;76984;52.332;10.562;2024-03-06T10:14:09;101621.13;;;7.86;57.06
86328;BME280;76984;52.332;10.562;2024-03-06T10:16:38;101622.25;;;8.00;56.80
86328;BME280;76984;52.332;10.562;2024-03-06T10:19:17;101612.63;;;8.03;55.80
86328;BME280;76984;52.332;10.562;2024-03-06T10:21:43;101615.09;;;8.10;55.82
86328;BME280;76984;52.332;10.562;2024-03-06T10:24:10;101596.63;;;8.05;55.39
86328;BME280;76984;52.332;10.562;2024-03-06T10:26:36;101593.31;;;8.08;55.39
86328;BME280;76984;52.332;10.562;2024-03-06T10:29:01;101616.22;;;8.19;54.61
86328;BME280;76984;52.332;10.562;2024-03-06T10:31:27;101621.50;;;8.20;55.25
86328;BME280;76984;52.332;10.562;2024-03-06T10:33:53;101618.16;;;8.18;56.27
86328;BME280;76984;52.332;10.562;2024-03-06T10:36:19;101620.38;;;8.26;55.60
86328;BME280;76984;52.332;10.562;2024-03-06T10:38:44;101619.56;;;8.21;55.78
86328;BME280;76984;52.332;10.562;2024-03-06T10:41:11;101626.75;;;8.27;55.12
86328;BME280;76984;52.332;10.562;2024-03-06T10:43:39;101605.47;;;8.17;55.55
86328;BME280;76984;52.332;10.562;2024-03-06T10:46:08;101628.44;;;8.38;55.49
86328;BME280;76984;52.332;10.562;2024-03-06T10:48:36;101612.44;;;8.35;55.52
86328;BME280;76984;52.332;10.562;2024-03-06T10:51:02;101622.69;;;8.50;54.37
86328;BME280;76984;52.332;10.562;2024-03-06T10:53:29;101621.03;;;8.59;54.74
86328;BME280;76984;52.332;10.562;2024-03-06T10:55:56;101619.91;;;8.75;55.11
86328;BME280;76984;52.332;10.562;2024-03-06T10:58:23;101633.72;;;8.91;55.11
86328;BME280;76984;52.332;10.562;2024-03-06T11:00:49;101619.09;;;8.85;53.96
86328;BME280;76984;52.332;10.562;2024-03-06T11:03:16;101625.44;;;9.01;52.89
86328;BME280;76984;52.332;10.562;2024-03-06T11:05:43;101634.50;;;9.16;53.44
86328;BME280;76984;52.332;10.562;2024-03-06T11:08:11;101611.03;;;9.14;53.22
86328;BME280;76984;52.332;10.562;2024-03-06T11:10:38;101631.69;;;9.42;53.54
86328;BME280;76984;52.332;10.562;2024-03-06T11:13:20;101616.50;;;9.39;51.71
86328;BME280;76984;52.332;10.562;2024-03-06T11:15:52;101640.50;;;9.59;52.39
86328;BME280;76984;52.332;10.562;2024-03-06T11:20:58;101602.38;;;9.56;53.04
86328;BME280;76984;52.332;10.562;2024-03-06T11:23:24;101628.81;;;9.78;51.34
86328;BME280;76984;52.332;10.562;2024-03-06T11:28:20;101630.66;;;9.97;52.63
86328;BME280;76984;52.332;10.562;2024-03-06T11:30:56;101630.06;;;10.06;51.76
86328;BME280;76984;52.332;10.562;2024-03-06T11:33:23;101622.63;;;10.01;49.44
86328;BME280;76984;52.332;10.562;2024-03-06T11:36:17;101644.16;;;10.09;50.45
86328;BME280;76984;52.332;10.562;2024-03-06T11:41:12;101641.06;;;10.26;51.04
86328;BME280;76984;52.332;10.562;2024-03-06T11:43:43;101624.19;;;10.17;50.95
86328;BME280;76984;52.332;10.562;2024-03-06T11:46:10;101635.78;;;10.29;49.80
86328;BME280;76984;52.332;10.562;2024-03-06T11:48:36;101627.97;;;10.37;49.66
86328;BME280;76984;52.332;10.562;2024-03-06T11:51:02;101644.50;;;10.52;48.58
86328;BME280;76984;52.332;10.562;2024-03-06T11:53:33;101625.75;;;10.39;48.53
86328;BME280;76984;52.332;10.562;2024-03-06T11:55:58;101629.59;;;10.43;49.24
86328;BME280;76984;52.332;10.562;2024-03-06T11:58:23;101628.50;;;10.39;49.62
86328;BME280;76984;52.332;10.562;2024-03-06T12:00:49;101637.88;;;10.48;49.54
86328;BME280;76984;52.332;10.562;2024-03-06T12:03:14;101650.50;;;10.64;49.10
86328;BME280;76984;52.332;10.562;2024-03-06T12:05:40;101643.75;;;10.75;48.51
86328;BME280;76984;52.332;10.562;2024-03-06T12:08:06;101645.03;;;10.88;47.95
86328;BME280;76984;52.332;10.562;2024-03-06T12:10:38;101652.50;;;10.93;48.98
86328;BME280;76984;52.332;10.562;2024-03-06T12:13:04;101649.44;;;10.94;48.05
86328;BME280;76984;52.332;10.562;2024-03-06T12:15:30;101644.47;;;10.91;48.00
86328;BME280;76984;52.332;10.562;2024-03-06T12:17:55;101623.69;;;10.88;48.32
86328;BME280;76984;52.332;10.562;2024-03-06T12:20:21;101642.38;;;11.07;47.30
86328;BME280;76984;52.332;10.562;2024-03-06T12:22:51;101633.50;;;11.10;46.44
86328;BME280;76984;52.332;10.562;2024-03-06T12:27:46;101644.56;;;11.39;47.52
86328;BME280;76984;52.332;10.562;2024-03-06T12:30:11;101632.81;;;11.47;44.89
86328;BME280;76984;52.332;10.562;2024-03-06T12:32:38;101641.63;;;11.54;45.88
86328;BME280;76984;52.332;10.562;2024-03-06T12:35:04;101643.78;;;11.57;47.08
86328;BME280;76984;52.332;10.562;2024-03-06T12:37:30;101631.16;;;11.46;45.77
86328;BME280;76984;52.332;10.562;2024-03-06T12:39:56;101649.34;;;11.57;45.92
86328;BME280;76984;52.332;10.562;2024-03-06T12:42:21;101625.88;;;11.50;46.15
86328;BME280;76984;52.332;10.562;2024-03-06T12:44:47;101624.75;;;11.51;47.39
86328;BME280;76984;52.332;10.562;2024-03-06T12:47:13;101624.50;;;11.71;47.00
86328;BME280;76984;52.332;10.562;2024-03-06T12:49:38;101637.53;;;11.94;46.58
86328;BME280;76984;52.332;10.562;2024-03-06T12:52:04;101639.06;;;12.06;46.26